Map

Track Data

SID SEASON NUMBER BASIN SUBBASIN NAME ISO_TIME NATURE LAT LON WMO_WIND WMO_PRES WMO_AGENCY TRACK_TYPE DIST2LAND LANDFALL IFLAG USA_AGENCY USA_ATCF_ID USA_LAT USA_LON USA_RECORD USA_STATUS USA_WIND USA_PRES USA_SSHS USA_R34_NE USA_R34_SE USA_R34_SW USA_R34_NW USA_R50_NE USA_R50_SE USA_R50_SW USA_R50_NW USA_R64_NE USA_R64_SE USA_R64_SW USA_R64_NW USA_POCI USA_ROCI USA_RMW USA_EYE TOKYO_LAT TOKYO_LON TOKYO_GRADE TOKYO_WIND TOKYO_PRES TOKYO_R50_DIR TOKYO_R50_LONG TOKYO_R50_SHORT TOKYO_R30_DIR TOKYO_R30_LONG TOKYO_R30_SHORT TOKYO_LAND CMA_LAT CMA_LON CMA_CAT CMA_WIND CMA_PRES HKO_LAT HKO_LON HKO_CAT HKO_WIND HKO_PRES NEWDELHI_LAT NEWDELHI_LON NEWDELHI_GRADE NEWDELHI_WIND NEWDELHI_PRES NEWDELHI_CI NEWDELHI_DP NEWDELHI_POCI REUNION_LAT REUNION_LON REUNION_TYPE REUNION_WIND REUNION_PRES REUNION_TNUM REUNION_CI REUNION_RMW REUNION_R34_NE REUNION_R34_SE REUNION_R34_SW REUNION_R34_NW REUNION_R50_NE REUNION_R50_SE REUNION_R50_SW REUNION_R50_NW REUNION_R64_NE REUNION_R64_SE REUNION_R64_SW REUNION_R64_NW BOM_LAT BOM_LON BOM_TYPE BOM_WIND BOM_PRES BOM_TNUM BOM_CI BOM_RMW BOM_R34_NE BOM_R34_SE BOM_R34_SW BOM_R34_NW BOM_R50_NE BOM_R50_SE BOM_R50_SW BOM_R50_NW BOM_R64_NE BOM_R64_SE BOM_R64_SW BOM_R64_NW BOM_ROCI BOM_POCI BOM_EYE BOM_POS_METHOD BOM_PRES_METHOD NADI_LAT NADI_LON NADI_CAT NADI_WIND NADI_PRES WELLINGTON_LAT WELLINGTON_LON WELLINGTON_WIND WELLINGTON_PRES DS824_LAT DS824_LON DS824_STAGE DS824_WIND DS824_PRES TD9636_LAT TD9636_LON TD9636_STAGE TD9636_WIND TD9636_PRES TD9635_LAT TD9635_LON TD9635_WIND TD9635_PRES TD9635_ROCI NEUMANN_LAT NEUMANN_LON NEUMANN_CLASS NEUMANN_WIND NEUMANN_PRES MLC_LAT MLC_LON MLC_CLASS MLC_WIND MLC_PRES USA_GUST BOM_GUST BOM_GUST_PER REUNION_GUST REUNION_GUST_PER USA_SEAHGT USA_SEARAD_NE USA_SEARAD_SE USA_SEARAD_SW USA_SEARAD_NW STORM_SPEED STORM_DIR
2021283N18128 2021 85 WP MM KOMPASU 2021-10-10 06:00:00 NR 17.5000 127.900 PROVISIONAL 549 529 O_____________ tcvightals WP242021 17.5000 127.900 35 998 0 140 150 140 1006 419 140 15 311
2021283N18128 2021 85 WP MM KOMPASU 2021-10-10 09:00:00 NR 17.9822 127.315 PROVISIONAL 521 453 P_____________ WP242021 17.9822 127.315 40 996 0 182 175 195 1006 414 130 15 306
2021283N18128 2021 85 WP MM KOMPASU 2021-10-10 12:00:00 NR 18.4000 126.600 PROVISIONAL 453 370 O_____________ tcvightals WP242021 18.4000 126.600 45 995 0 225 200 175 250 1006 410 120 17 295
2021283N18128 2021 85 WP MM KOMPASU 2021-10-10 15:00:00 NR 18.6908 125.705 PROVISIONAL 360 277 P_____________ WP242021 18.6908 125.705 45 992 0 212 185 142 220 1004 410 120 17 284
2021283N18128 2021 85 WP MM KOMPASU 2021-10-10 18:00:00 NR 18.8000 124.900 PROVISIONAL 277 234 O_____________ tcvightals WP242021 18.8000 124.900 45 990 0 200 170 110 190 1002 410 120 11 268
2021283N18128 2021 85 WP MM KOMPASU 2021-10-10 21:00:00 NR 18.6491 124.504 PROVISIONAL 233 200 P_____________ WP242021 18.6734 124.510 48 988 0 217 127 110 215 1002 395 72 7 246
2021283N18128 2021 85 WP MM KOMPASU 2021-10-11 00:00:00 NR 18.5000 124.200 PROVISIONAL 200 149 O_____________ tcvitals WP242021 18.5000 124.200 51 987 0 235 85 110 240 1002 380 25 8 269
2021283N18128 2021 85 WP MM KOMPASU 2021-10-11 03:00:00 NR 18.6309 123.679 PROVISIONAL 149 95 P_____________ WP242021 18.5097 123.651 -1 1002 375 22 11 284
2021283N18128 2021 85 WP MM KOMPASU 2021-10-11 06:00:00 NR 18.7607 123.068 PROVISIONAL 95 45 O_____________ tcvitals WP242021 18.5750 123.026 -1 1002 370 20 12 277
2021283N18128 2021 85 WP MM KOMPASU 2021-10-11 09:00:00 NR 18.7745 122.390 PROVISIONAL 45 44 P_____________ WP242021 18.6112 122.431 -1 1002 370 20 13 271
2021283N18128 2021 85 WP MM KOMPASU 2021-10-11 12:00:00 NR 18.7918 121.695 PROVISIONAL 45 30 O_____________ tcvitals WP242021 18.6476 121.822 -1 1002 370 20 12 271
2021283N18128 2021 85 WP MM KOMPASU 2021-10-11 15:00:00 NR 18.7945 121.088 PROVISIONAL 30 22 P_____________ WP242021 18.6838 121.201 -1 1002 385 20 11 270
2021283N18128 2021 85 WP MM KOMPASU 2021-10-11 18:00:00 NR 18.7843 120.511 PROVISIONAL 38 38 O_____________ tcvitals WP242021 18.7215 120.557 -1 1002 400 20 11 270
2021283N18128 2021 85 WP MM KOMPASU 2021-10-11 21:00:00 NR 18.7920 119.903 PROVISIONAL 86 86 P_____________ WP242021 18.7657 119.918 -1 1002 415 22 12 271
2021283N18128 2021 85 WP MM KOMPASU 2021-10-12 00:00:00 NR 18.8000 119.200 PROVISIONAL 154 154 O_____________ tcvightals WP242021 18.8000 119.200 54 985 0 185 135 190 225 1003 430 25 15 270
2021283N18128 2021 85 WP MM KOMPASU 2021-10-12 03:00:00 NR 18.8005 118.307 PROVISIONAL 244 244 P_____________ WP242021 18.8063 118.303 54 984 0 232 152 177 230 1003 430 25 17 270
2021283N18128 2021 85 WP MM KOMPASU 2021-10-12 06:00:00 NR 18.8000 117.400 PROVISIONAL 334 334 O_____________ tcvightals WP242021 18.8000 117.400 54 984 0 280 170 165 235 1003 430 25 15 269
2021283N18128 2021 85 WP MM KOMPASU 2021-10-12 09:00:00 NR 18.7768 116.677 PROVISIONAL 403 403 P_____________ WP242021 18.7768 116.677 54 982 0 297 167 162 257 1001 374 40 13 270
2021283N18128 2021 85 WP MM KOMPASU 2021-10-12 12:00:00 NR 18.8000 116.000 PROVISIONAL 429 394 O_____________ tcvightals WP242021 18.8000 116.000 54 981 0 315 165 160 280 1000 319 55 14 277
2021283N18128 2021 85 WP MM KOMPASU 2021-10-12 15:00:00 NR 18.9499 115.250 PROVISIONAL 394 349 P_____________ WP242021 18.9499 115.250 54 982 0 272 185 175 240 1001 319 55 15 282
2021283N18128 2021 85 WP MM KOMPASU 2021-10-12 18:00:00 NR 19.1000 114.500 PROVISIONAL 349 309 O_____________ tcvightals WP242021 19.1000 114.500 54 983 0 230 205 190 200 1002 319 55 13 277
2021283N18128 2021 85 WP MM KOMPASU 2021-10-12 21:00:00 NR 19.1137 113.860 PROVISIONAL 309 237 P_____________ WP242021 19.1137 113.860 54 984 0 240 220 180 187 1003 334 50 13 270
2021283N18128 2021 85 WP MM KOMPASU 2021-10-13 00:00:00 NR 19.1000 113.100 PROVISIONAL 227 118 O_____________ tcvightals WP242021 19.1000 113.100 54 985 0 250 235 170 175 1004 350 45 18 271
2021283N18128 2021 85 WP MM KOMPASU 2021-10-13 03:00:00 NR 19.1360 111.980 PROVISIONAL 118 30 P_____________ WP242021 19.1360 111.980 54 986 0 217 175 155 190 1004 350 45 22 273
2021283N18128 2021 85 WP MM KOMPASU 2021-10-13 06:00:00 NR 19.2000 110.800 PROVISIONAL 23 0 O_____________ tcvightals WP242021 19.2000 110.800 54 988 0 185 115 140 205 1004 350 45 20 275
2021283N18128 2021 85 WP MM KOMPASU 2021-10-13 09:00:00 NR 19.3218 109.833 PROVISIONAL 0 0 P_____________ WP242021 19.3218 109.833 49 990 0 185 102 140 162 1003 334 45 17 277
2021283N18128 2021 85 WP MM KOMPASU 2021-10-13 12:00:00 NR 19.4000 109.000 PROVISIONAL 0 0 O_____________ tcvightals WP242021 19.4000 109.000 45 992 0 185 90 140 120 1002 319 45 16 270
2021283N18128 2021 85 WP MM KOMPASU 2021-10-13 15:00:00 NR 19.3151 108.172 PROVISIONAL 41 41 P_____________ WP242021 19.3151 108.172 45 991 0 180 100 130 147 1002 319 45 13 261
2021283N18128 2021 85 WP MM KOMPASU 2021-10-13 18:00:00 NR 19.2000 107.600 PROVISIONAL 105 105 O_____________ tcvightals WP242021 19.2000 107.600 45 991 0 175 110 120 175 1002 319 45 6 256
2021283N18128 2021 85 WP MM KOMPASU 2021-10-13 21:00:00 NR 19.1619 107.505 PROVISIONAL 116 116 P_____________ WP242021 19.1619 107.505 40 994 0 137 97 95 132 1002 269 40 1 270
2021283N18128 2021 85 WP MM KOMPASU 2021-10-14 00:00:00 NR 19.2000 107.500 PROVISIONAL 116 116 O_____________ tcvightals WP242021 19.2000 107.500 35 997 0 100 85 70 90 1002 220 35 4 302
2021283N18128 2021 85 WP MM KOMPASU 2021-10-14 03:00:00 NR 19.3575 107.175 PROVISIONAL 115 76 P_____________ WP242021 19.3575 107.175 30 999 -1 1002 155 32 8 292
2021283N18128 2021 85 WP MM KOMPASU 2021-10-14 06:00:00 NR 19.5000 106.700 PROVISIONAL 76 41 O_____________ tcvightals WP242021 19.5000 106.700 25 1001 -1 1003 90 30 10 278
2021283N18128 2021 85 WP MM KOMPASU 2021-10-14 09:00:00 NR 19.4978 106.162 PROVISIONAL 41 0 P_____________ WP242021 19.4978 106.162 22 1002 -1 1004 90 30 10 264
2021283N18128 2021 85 WP MM KOMPASU 2021-10-14 12:00:00 NR 19.4000 105.600 PROVISIONAL 0 O_____________ tcvightals WP242021 19.4000 105.600 19 1003 -1 1005 90 30 11 260

Digital Typhoon Data and Search

About IBTrACS Database

This database is a web-friendly format of International Best Track Archive for Climate Stewardship (IBTrACS), a global best track data archive curated by NOAA dating back to 1842.

Updated: 2022-01-14